• Join FlightAware (Why Join?)
  • Login
  • US Flag 
11:01PM EDT


 

Airport Tracker/Info


-or-


 

Live Flight TrackerFlight Track Log ✈ N966QS ✈ 23-Apr-2013 ✈ KFMY - KCLE

Flight Track Log - Related Links

Times and Time Zones

All times are in EDT time to prevent confusion due to time zone crossing. See the N966QS flight status page for this flight to view local times or setup timezone preferences in your user account.

Time Position Orientation Groundspeed Altitude Reporting Facility
EDT Latitude Longitude Course Direction KTS MPH feet Rate Location/Type
10:00AM 26.6619 -81.7656 50° Northeast 224 258 5,000  Level Miami Center
10:01AM 26.7036 -81.7094 50° Northeast 251 289 5,000 900 Level Miami Center
10:02AM 26.7656 -81.6678 31° Northeast 277 319 6,900 2,400 Climbing Miami Center
10:03AM 26.8356 -81.6939 342° North 285 328 9,800 1,560 Climbing Miami Center
10:04AM 27.3246 -81.8457 336° Northwest  Level FlightAware Approximate
10:04AM 26.9267 -81.7186 346° North 309 356 10,100  Level Miami Center
10:05AM 27.0258 -81.7483 345° North 339 390 12,000 2,100 Climbing Miami Center
10:06AM 27.1208 -81.7781 344° North 352 405 14,400 2,160 Climbing Miami Center
10:07AM 27.2158 -81.8100 343° North 357 411 16,400 1,860 Climbing Miami Center
10:08AM 27.3067 -81.8397 344° North 357 411 18,200 1,860 Climbing Miami Center
10:09AM 27.4014 -81.8719 343° North 362 417 20,200 2,100 Climbing Miami Center
10:10AM 27.5128 -81.9117 342° North 362 417 22,500 1,980 Climbing Miami Center
10:12AM 27.7231 -81.9667 347° North 377 434 26,400 1,920 Climbing Jacksonville Center
10:13AM 27.8464 -81.9889 351° North 409 471 28,600 2,100 Climbing Jacksonville Center
10:14AM 27.9611 -82.0092 351° North 415 478 30,600 1,980 Climbing Jacksonville Center
10:15AM 28.0658 -82.0647 335° Northwest 410 472 32,600 1,980 Climbing Jacksonville Center
10:16AM 28.1728 -82.1297 332° Northwest 416 479 34,600 1,920 Climbing Jacksonville Center
10:17AM 28.2753 -82.1972 330° Northwest 427 491 36,500 1,920 Climbing Jacksonville Center
10:18AM 28.3781 -82.2625 331° Northwest 432 497 38,500 1,560 Climbing Jacksonville Center
10:19AM 28.4783 -82.3281 330° Northwest 425 489 39,700 720 Climbing Jacksonville Center
10:20AM 28.5831 -82.3936 331° Northwest 425 489 40,000 300 Climbing Jacksonville Center
10:21AM 28.6917 -82.4642 330° Northwest 431 496 40,300 600 Climbing Jacksonville Center
10:22AM 28.7964 -82.5278 332° Northwest 431 496 41,300 900 Climbing Jacksonville Center
10:23AM 28.9008 -82.5961 330° Northwest 426 490 42,200 780 Climbing Jacksonville Center
10:24AM 28.9928 -82.6575 330° Northwest 426 490 42,900 360 Climbing Jacksonville Center
10:25AM 29.0994 -82.7286 330° Northwest 426 490 43,000  Climbing Jacksonville Center
10:26AM 29.2081 -82.7975 331° Northwest 431 496 43,000  Level Jacksonville Center
10:27AM 29.3208 -82.8711 330° Northwest 444 511 43,000  Level Jacksonville Center
10:28AM 29.4314 -82.9428 331° Northwest 449 517 43,000  Level Jacksonville Center
10:29AM 29.5400 -83.0144 330° Northwest 449 517 43,000  Level Jacksonville Center
10:30AM 29.6525 -83.0767 334° Northwest 449 517 43,000  Level Jacksonville Center
10:31AM 29.7736 -83.1294 339° North 449 517 43,000  Level Jacksonville Center
10:32AM 29.8925 -83.1872 337° Northwest 455 524 43,000  Level Jacksonville Center
10:33AM 30.0092 -83.2403 339° North 455 524 43,000  Level Jacksonville Center
10:34AM 30.1261 -83.2961 338° Northwest 455 524 43,000  Level Jacksonville Center
10:35AM 30.2447 -83.3519 338° Northwest 455 524 43,000  Level Jacksonville Center
10:36AM 30.3719 -83.4125 338° Northwest 455 524 43,000  Level Jacksonville Center
10:37AM 30.4928 -83.4614 341° North 455 524 43,000  Level Jacksonville Center
10:38AM 30.6075 -83.5200 336° Northwest 455 524 43,000  Level Jacksonville Center
10:39AM 30.7242 -83.5742 338° Northwest 455 524 43,000  Level Jacksonville Center
10:40AM 30.8386 -83.6306 337° Northwest 455 524 43,000  Level Jacksonville Center
10:41AM 30.9553 -83.6872 337° Northwest 455 524 43,000  Level Jacksonville Center
10:42AM 31.0717 -83.7439 337° Northwest 455 524 43,000  Level Jacksonville Center
10:43AM 31.1903 -83.7983 339° North 455 524 43,000  Level Jacksonville Center
10:44AM 31.3069 -83.8556 337° Northwest 455 524 43,000  Level Jacksonville Center
10:46AM 31.5733 -83.9756 339° North 463 533 43,000  Level Atlanta Center
10:47AM 31.7028 -84.0047 349° North 463 533 43,000  Level Atlanta Center
10:48AM 31.8322 -84.0292 351° North 463 533 43,000  Level Atlanta Center
10:49AM 31.9594 -84.0583 349° North 463 533 43,000  Level Atlanta Center
10:50AM 32.0847 -84.0856 350° North 468 539 43,000  Level Atlanta Center
10:51AM 32.2267 -84.1150 350° North 468 539 43,000  Level Atlanta Center
10:52AM 32.3519 -84.1469 348° North 462 532 43,000  Level Atlanta Center
10:53AM 32.4792 -84.1742 350° North 462 532 43,000  Level Atlanta Center
10:54AM 32.6064 -84.2017 350° North 467 537 43,000  Level Atlanta Center
10:55AM 32.7336 -84.2339 348° North 467 537 43,000  Level Atlanta Center
10:56AM 32.8589 -84.2614 350° North 462 532 43,000  Level Atlanta Center
10:57AM 32.9883 -84.2889 350° North 462 532 43,000  Level Atlanta Center
10:58AM 33.1197 -84.3217 348° North 467 537 43,000  Level Atlanta Center
10:59AM 33.2492 -84.3492 350° North 467 537 43,000  Level Atlanta Center
11:00AM 33.3764 -84.3797 349° North 465 535 43,000  Level Atlanta Center
11:01AM 33.5056 -84.4100 349° North 465 535 43,000  Level Atlanta Center
11:02AM 33.6225 -84.4331 351° North 465 535 43,000  Level Atlanta Center
11:03AM 33.7583 -84.4086 North 464 534 43,000  Level Atlanta Center
11:04AM 33.8939 -84.3792 10° North 484 557 43,000  Level Atlanta Center
11:05AM 34.0339 -84.3472 11° North 492 566 43,000  Level Atlanta Center
11:06AM 34.1883 -84.3050 13° North 516 594 43,000  Level Atlanta Center
11:07AM 34.3242 -84.2728 11° North 504 580 43,000  Level Atlanta Center
11:08AM 34.4578 -84.2428 10° North 495 570 43,000  Level Atlanta Center
11:09AM 34.5767 -84.2153 11° North 484 557 43,000  Level Atlanta Center
11:10AM 34.7186 -84.1828 11° North 484 557 43,000  Level Atlanta Center
11:11AM 34.8522 -84.1500 11° North 479 551 43,000  Level Atlanta Center
11:12AM 34.9858 -84.1172 11° North 485 558 43,000  Level Atlanta Center
11:13AM 35.1236 -84.0844 11° North 485 558 43,000  Level Atlanta Center
11:14AM 35.2633 -84.0514 11° North 497 572 43,000  Level Atlanta Center
11:15AM 35.3992 -84.0183 11° North 497 572 43,000  Level Atlanta Center
11:16AM 35.5367 -83.9853 11° North 497 572 43,000  Level Atlanta Center
11:17AM 35.6744 -83.9492 12° North 502 578 43,000  Level Atlanta Center
11:18AM 35.8142 -83.9183 10° North 502 578 43,000  Level Atlanta Center
11:19AM 35.9539 -83.8669 17° North 508 585 43,000  Level Atlanta Center
11:20AM 36.0831 -83.7844 27° Northeast 515 593 43,000  Level Atlanta Center
11:22AM 36.2872 -83.6531 27° Northeast 517 595 43,000  Level Indianapolis Center
11:23AM 36.4142 -83.5714 27° Northeast 515 593 43,000  Level Indianapolis Center
11:24AM 36.5544 -83.4833 27° Northeast 516 594 43,000  Level Indianapolis Center
11:25AM 36.6814 -83.4022 27° Northeast 512 589 43,000  Level Indianapolis Center
11:26AM 36.8094 -83.3181 28° Northeast 515 593 43,000  Level Indianapolis Center
11:27AM 36.9392 -83.2350 27° Northeast 519 597 43,000  Level Indianapolis Center
11:28AM 37.0692 -83.1497 28° Northeast 519 597 43,000  Level Indianapolis Center
11:29AM 37.2003 -83.0650 27° Northeast 525 604 43,000  Level Indianapolis Center
11:30AM 37.3306 -82.9792 28° Northeast 530 610 43,000  Level Indianapolis Center
11:31AM 37.4828 -82.8797 27° Northeast 531 611 43,000  Level Indianapolis Center
11:32AM 37.6147 -82.7919 28° Northeast 537 618 43,000  Level Indianapolis Center
11:33AM 37.7450 -82.7044 28° Northeast 532 612 43,000  Level Indianapolis Center
11:34AM 37.8742 -82.6217 27° Northeast 522 601 43,000  Level Indianapolis Center
11:35AM 38.0056 -82.5322 28° Northeast 530 610 43,000  Level Indianapolis Center
11:36AM 38.1314 -82.4483 28° Northeast 526 605 43,000 -60 Level Indianapolis Center
11:37AM 38.2603 -82.3597 28° Northeast 524 603 42,900 -1,320 Descending Indianapolis Center
11:38AM 38.3878 -82.2742 28° Northeast 516 594 40,300 -2,760 Descending Indianapolis Center
11:39AM 38.5092 -82.1922 28° Northeast 482 555 37,300 -2,820 Descending Indianapolis Center
11:40AM 38.6514 -82.0964 28° Northeast 479 551 34,600 -1,620 Descending Indianapolis Center
11:41AM 38.7714 -82.0311 23° Northeast 469 540 34,000 -300 Descending Indianapolis Center
11:42AM 38.8994 -82.0342 359° North 457 526 34,000  Level Indianapolis Center
11:43AM 39.0264 -82.0417 357° North 456 525 34,000  Level Indianapolis Center
11:44AM 39.1533 -82.0492 357° North 454 522 34,000 -180 Level Indianapolis Center
11:45AM 39.2817 -82.0561 358° North 459 528 33,700 -1,080 Descending Indianapolis Center
11:46AM 39.4086 -82.0653 357° North 456 525 31,800 -2,100 Descending Indianapolis Center
11:47AM 39.5392 -82.0728 357° North 466 536 29,500 -2,220 Descending Indianapolis Center
11:48AM 39.6678 -82.0800 358° North 462 532 27,300 -2,220 Descending Indianapolis Center
11:49AM 39.7972 -82.0864 358° North 441 507 25,000 -1,680 Descending Indianapolis Center
11:50AM 39.9156 -82.0942 357° North 428 493 23,900 -1,860 Descending Indianapolis Center
11:51AM 40.0525 -82.1019 358° North 420 483 21,300 -1,800 Descending Indianapolis Center
11:52AM 40.1742 -82.1092 357° North 431 496 20,300 -660 Descending Indianapolis Center
11:54AM 40.3031 -82.1175 357° North 449 517 20,000 -480 Descending Indianapolis Center
11:55AM 40.4328 -82.1206 359° North 461 531 19,400 -1,080 Descending Indianapolis Center
11:56AM 40.5472 -82.0406 28° Northeast 466 536 17,900 -1,380 Descending Indianapolis Center
11:57AM 40.6494 -81.9378 37° Northeast 459 528 16,600 -1,740 Descending Indianapolis Center
11:58AM 40.7500 -81.8358 38° Northeast 454 522 14,400 -2,400 Descending Indianapolis Center
11:58AM 40.8072 -81.7792 37° Northeast 431 496 12,900 -2,700 Descending Cleveland Center
11:59AM 40.8472 -81.7414 36° Northeast 437 503 11,900 -2,520 Descending Cleveland Center
11:59AM 40.9144 -81.6739 37° Northeast 413 475 10,100 -1,920 Descending Cleveland Center
12:00PM 40.9378 -81.6494 38° Northeast 417 480 10,000 -120 Descending Cleveland Center
12:01PM 41.0400 -81.6403 North 382 440 10,000  Level Cleveland Center
12:02PM 41.1478 -81.6917 340° North 376 433 10,000 -300 Level Cleveland Center
12:02PM 41.2142 -81.7231 340° North 329 379 9,500 -1,320 Descending Cleveland Center
12:03PM 41.2869 -81.7603 339° North 294 338 7,800 -1,920 Descending Cleveland Center
12:04PM 41.3056 -81.7661 347° North 313 360 7,200 -3,180 Descending Cleveland Center
12:04PM 41.3617 -81.7783 351° North 286 329 4,600 -3,120 Descending Cleveland Center
12:05PM 41.3828 -81.7592 34° Northeast 265 305 4,100 -1,140 Descending Cleveland Center
12:05PM 41.4250 -81.7158 38° Northeast 283 326 3,500 -900 Descending Cleveland Center
12:06PM 41.4397 -81.6967 44° Northeast 240 276 3,200 -540 Descending Cleveland Center
12:06PM 41.4875 -81.7003 357° North 219 252 3,000 -240 Descending Cleveland Center
12:07PM 41.4958 -81.7142 309° West 209 241 3,000 -240 Level Cleveland Center
12:07PM 41.4786 -81.7528 239° Southwest 150 173 2,800 -540 Descending Cleveland Center
12:08PM 41.4703 -81.7636 224° Southwest 124 143 2,500 -840 Descending Cleveland Center
12:08PM 41.4492 -81.7908 224° Southwest 134 154 2,000 -720 Descending Cleveland Center
12:09PM 41.4258 -81.8292 231° Southwest 141 162 1,300 -720 Descending Cleveland Center